createdAt,value
2019-03-28T00:03:08.185Z,5.01
2019-03-28T00:07:16.618Z,4.86
2019-03-28T00:11:25.552Z,4.91
2019-03-28T00:15:34.747Z,4.96
2019-03-28T00:19:42.912Z,4.92
2019-03-28T00:24:05.116Z,5.00
2019-03-28T00:28:13.990Z,4.91
2019-03-28T00:32:22.109Z,4.83
2019-03-28T00:36:30.853Z,4.88
2019-03-28T00:40:40.689Z,4.81
2019-03-28T00:44:48.906Z,4.82
2019-03-28T00:48:57.970Z,4.72
2019-03-28T00:53:06.381Z,4.66
2019-03-28T00:57:14.620Z,5.01
2019-03-28T01:01:23.209Z,4.54
2019-03-28T01:05:31.450Z,4.90
2019-03-28T01:09:39.785Z,4.74
2019-03-28T01:13:48.302Z,4.58
2019-03-28T01:17:56.920Z,4.49
2019-03-28T01:22:05.157Z,4.49
2019-03-28T01:26:13.575Z,4.70
2019-03-28T01:30:22.311Z,5.08
2019-03-28T01:34:31.343Z,4.63
2019-03-28T01:38:40.573Z,4.78
2019-03-28T01:42:48.804Z,4.95
2019-03-28T01:46:57.645Z,4.87
2019-03-28T01:51:06.787Z,4.84
2019-03-28T01:55:14.990Z,4.91
2019-03-28T01:59:24.227Z,4.82
2019-03-28T02:03:32.349Z,4.81
2019-03-28T02:07:40.469Z,4.47
2019-03-28T02:11:49.279Z,3.98
2019-03-28T02:15:57.717Z,3.85
2019-03-28T02:20:06.461Z,4.13
2019-03-28T02:24:15.206Z,4.09
2019-03-28T02:28:23.619Z,3.71
2019-03-28T02:32:33.803Z,3.51
2019-03-28T02:36:42.939Z,3.75
2019-03-28T02:40:51.467Z,3.79
2019-03-28T02:45:00.666Z,3.82
2019-03-28T02:49:09.440Z,3.85
2019-03-28T02:53:17.641Z,3.74
2019-03-28T02:57:40.094Z,3.56
2019-03-28T03:01:36.565Z,3.50
2019-03-28T03:05:45.054Z,3.45
2019-03-28T03:09:53.506Z,3.56
2019-03-28T03:14:01.818Z,2.57
2019-03-28T03:18:10.043Z,2.91
2019-03-28T03:22:18.887Z,2.80
2019-03-28T03:26:28.118Z,2.47
2019-03-28T03:30:36.557Z,2.85
2019-03-28T03:34:45.171Z,2.84
2019-03-28T03:38:53.303Z,2.50
2019-03-28T03:43:01.908Z,2.37
2019-03-28T03:47:11.162Z,2.30
2019-03-28T03:51:19.393Z,2.18
2019-03-28T03:55:27.830Z,1.73
2019-03-28T03:59:36.217Z,2.05
2019-03-28T04:03:44.350Z,2.24
2019-03-28T04:07:52.888Z,1.95
2019-03-28T04:12:01.092Z,2.23
2019-03-28T04:16:09.308Z,2.16
2019-03-28T04:20:17.724Z,2.22
2019-03-28T04:24:25.960Z,2.13
2019-03-28T04:28:34.877Z,2.30
2019-03-28T04:32:43.624Z,2.39
2019-03-28T04:36:51.852Z,2.51
2019-03-28T04:41:00.767Z,2.61
2019-03-28T04:45:10.446Z,3.01
2019-03-28T04:49:18.877Z,3.86
2019-03-28T04:53:29.616Z,3.78
2019-03-28T04:57:40.767Z,4.07
2019-03-28T05:02:01.002Z,4.32
2019-03-28T05:05:58.997Z,4.99
2019-03-28T05:10:08.793Z,5.06
2019-03-28T05:14:16.990Z,5.71
2019-03-28T05:18:25.724Z,5.78
2019-03-28T05:22:33.943Z,6.28
2019-03-28T05:26:42.456Z,6.73
2019-03-28T05:30:50.895Z,7.01
2019-03-28T05:34:59.218Z,7.71
2019-03-28T05:39:08.358Z,7.46
2019-03-28T05:43:16.777Z,7.80
2019-03-28T05:47:25.067Z,8.27
2019-03-28T05:51:33.438Z,8.27
2019-03-28T05:55:41.942Z,8.36
2019-03-28T05:59:50.170Z,8.62
2019-03-28T06:03:58.909Z,8.93
2019-03-28T06:08:07.230Z,9.14
2019-03-28T06:12:18.895Z,8.75
2019-03-28T06:16:26.611Z,9.59
2019-03-28T06:20:35.046Z,10.59
2019-03-28T06:24:43.681Z,9.76
2019-03-28T06:28:52.647Z,10.33
2019-03-28T06:33:00.816Z,9.89
2019-03-28T06:37:10.488Z,10.75
2019-03-28T06:41:18.709Z,11.34
2019-03-28T06:45:26.927Z,10.15
2019-03-28T06:49:35.381Z,10.95
2019-03-28T06:53:43.575Z,11.87
2019-03-28T06:57:52.016Z,11.78
2019-03-28T07:02:00.744Z,12.36
2019-03-28T07:06:09.555Z,12.25
2019-03-28T07:10:19.656Z,12.12
2019-03-28T07:14:28.319Z,12.83
2019-03-28T07:18:36.761Z,11.90
2019-03-28T07:22:46.106Z,12.65
2019-03-28T07:26:54.967Z,12.54
2019-03-28T07:31:03.176Z,13.40
2019-03-28T07:35:11.807Z,13.93
2019-03-28T07:39:20.131Z,13.10
2019-03-28T07:43:28.882Z,13.20
2019-03-28T07:47:37.697Z,13.29
2019-03-28T07:51:45.799Z,12.69
2019-03-28T07:55:54.141Z,14.25
2019-03-28T08:00:04.480Z,14.39
2019-03-28T08:04:13.244Z,13.72
2019-03-28T08:08:22.091Z,14.52
2019-03-28T08:12:30.887Z,14.10
2019-03-28T08:16:39.333Z,14.53
2019-03-28T08:20:48.260Z,14.69
2019-03-28T08:24:56.804Z,13.11
2019-03-28T08:29:05.297Z,14.46
2019-03-28T08:33:13.949Z,15.12
2019-03-28T08:37:22.373Z,15.30
2019-03-28T08:41:31.195Z,14.94
2019-03-28T08:45:39.740Z,15.72
2019-03-28T08:49:48.069Z,15.67
2019-03-28T08:53:56.588Z,14.53
2019-03-28T08:58:04.836Z,14.08
2019-03-28T09:02:14.076Z,16.28
2019-03-28T09:06:22.811Z,16.54
2019-03-28T09:10:31.178Z,17.01
2019-03-28T09:14:39.534Z,16.27
2019-03-28T09:18:48.148Z,16.10
2019-03-28T09:22:56.782Z,15.95
2019-03-28T09:27:05.307Z,14.60
2019-03-28T09:31:19.714Z,16.41
2019-03-28T09:35:31.434Z,16.23
2019-03-28T09:39:39.715Z,16.87
2019-03-28T09:43:55.022Z,16.70
2019-03-28T09:47:58.209Z,16.18
2019-03-28T09:52:06.796Z,16.53
2019-03-28T09:56:15.443Z,16.47
2019-03-28T10:00:24.153Z,16.89
2019-03-28T10:04:32.502Z,16.52
2019-03-28T10:08:40.913Z,16.97
2019-03-28T10:12:49.327Z,17.43
2019-03-28T10:16:58.098Z,15.47
2019-03-28T10:21:07.839Z,16.68
2019-03-28T10:25:16.369Z,16.92
2019-03-28T10:29:24.871Z,16.63
2019-03-28T10:33:33.203Z,17.48
2019-03-28T10:37:41.843Z,18.28
2019-03-28T10:41:50.381Z,17.49
2019-03-28T10:45:58.770Z,17.49
2019-03-28T10:50:07.562Z,17.72
2019-03-28T10:54:20.375Z,15.33
2019-03-28T10:58:26.423Z,17.70
2019-03-28T11:02:36.283Z,17.70
2019-03-28T11:06:44.511Z,16.52
2019-03-28T11:10:52.898Z,15.61
2019-03-28T11:15:01.363Z,16.44
2019-03-28T11:19:09.867Z,15.01
2019-03-28T11:23:18.285Z,15.22
2019-03-28T11:27:27.226Z,14.84
2019-03-28T11:31:45.601Z,14.35
2019-03-28T11:35:45.524Z,13.52
2019-03-28T11:39:54.353Z,13.29
2019-03-28T11:44:02.466Z,13.49
2019-03-28T11:48:10.886Z,12.43
2019-03-28T11:52:19.710Z,12.26
2019-03-28T11:56:27.956Z,13.02
2019-03-28T12:00:36.564Z,13.31
2019-03-28T12:04:44.899Z,11.33
2019-03-28T12:08:55.936Z,12.27
2019-03-28T12:13:06.037Z,13.12
2019-03-28T12:17:14.276Z,13.84
2019-03-28T12:21:22.595Z,12.18
2019-03-28T12:25:30.826Z,12.03
2019-03-28T12:29:40.144Z,11.88
2019-03-28T12:33:48.978Z,11.51
2019-03-28T12:37:57.910Z,11.27
2019-03-28T12:42:06.149Z,11.10
2019-03-28T12:46:14.985Z,11.20
2019-03-28T12:50:23.632Z,11.62
2019-03-28T12:54:31.925Z,11.39
2019-03-28T12:58:40.472Z,12.13
2019-03-28T13:02:48.956Z,10.81
2019-03-28T13:06:57.192Z,12.10
2019-03-28T13:11:06.133Z,11.49
2019-03-28T13:15:14.669Z,11.94
2019-03-28T13:19:23.078Z,11.18
2019-03-28T13:23:31.912Z,11.36
2019-03-28T13:27:41.047Z,10.82
2019-03-28T13:31:49.483Z,11.28
2019-03-28T13:35:57.994Z,11.47
2019-03-28T13:40:06.999Z,11.03
2019-03-28T13:44:15.858Z,11.41
2019-03-28T13:48:24.617Z,10.78
2019-03-28T13:52:32.840Z,11.09
2019-03-28T13:56:41.305Z,10.00
2019-03-28T14:00:49.794Z,9.78
2019-03-28T14:04:58.532Z,10.03
2019-03-28T14:09:08.470Z,9.84
2019-03-28T14:13:16.907Z,9.73
2019-03-28T14:17:25.707Z,9.94
2019-03-28T14:21:34.174Z,9.82
2019-03-28T14:25:42.385Z,9.80
2019-03-28T14:29:50.917Z,9.85
2019-03-28T14:33:59.835Z,9.42
2019-03-28T14:38:08.054Z,9.17
2019-03-28T14:42:19.553Z,8.97
2019-03-28T14:46:26.655Z,9.20
2019-03-28T14:50:37.024Z,8.85
2019-03-28T14:54:45.640Z,8.45
2019-03-28T14:58:55.389Z,8.49
2019-03-28T15:03:03.911Z,8.29
2019-03-28T15:07:12.067Z,8.20
2019-03-28T15:11:21.406Z,8.03
2019-03-28T15:15:30.119Z,8.36
2019-03-28T15:19:38.569Z,8.07
2019-03-28T15:23:46.870Z,7.96
2019-03-28T15:27:55.715Z,8.26
2019-03-28T15:32:04.129Z,8.11
2019-03-28T15:36:12.588Z,8.03
2019-03-28T15:40:23.330Z,7.75
2019-03-28T15:44:31.604Z,7.81
2019-03-28T15:48:39.875Z,7.77
2019-03-28T15:52:48.630Z,7.58
2019-03-28T15:56:58.654Z,7.62
2019-03-28T16:01:08.213Z,7.37
2019-03-28T16:05:16.764Z,7.35
2019-03-28T16:09:25.913Z,7.37
2019-03-28T16:13:37.389Z,7.50
2019-03-28T16:17:44.716Z,7.41
2019-03-28T16:21:52.904Z,7.28
2019-03-28T16:26:01.568Z,7.17
2019-03-28T16:30:11.189Z,7.11
2019-03-28T16:34:20.033Z,7.08
2019-03-28T16:38:28.346Z,7.21
2019-03-28T16:42:36.652Z,7.28
2019-03-28T16:46:44.907Z,7.21
2019-03-28T16:50:53.155Z,7.27
2019-03-28T16:55:01.642Z,7.38
2019-03-28T16:59:10.173Z,7.49
2019-03-28T17:03:19.522Z,6.87
2019-03-28T17:07:28.758Z,5.96
2019-03-28T17:11:37.596Z,6.29
2019-03-28T17:15:46.124Z,6.51
2019-03-28T17:19:54.539Z,6.69
2019-03-28T17:24:02.875Z,6.28
2019-03-28T17:28:11.596Z,5.73
2019-03-28T17:32:20.441Z,5.73
2019-03-28T17:36:29.152Z,6.06
2019-03-28T17:40:38.013Z,6.16
2019-03-28T17:44:46.401Z,6.30
2019-03-28T17:48:57.500Z,5.73
2019-03-28T17:53:06.232Z,5.42
2019-03-28T17:57:14.573Z,5.75
2019-03-28T18:01:23.445Z,5.88
2019-03-28T18:05:31.919Z,5.30
2019-03-28T18:09:41.679Z,5.29
2019-03-28T18:13:50.640Z,5.60
2019-03-28T18:17:58.917Z,5.43
2019-03-28T18:22:07.464Z,4.68
2019-03-28T18:26:15.811Z,5.14
2019-03-28T18:30:24.986Z,4.81
2019-03-28T18:34:33.136Z,4.93
2019-03-28T18:38:41.443Z,5.14
2019-03-28T18:42:50.109Z,5.09
2019-03-28T18:46:58.625Z,5.00
2019-03-28T18:51:08.089Z,4.52
2019-03-28T18:55:16.926Z,4.65
2019-03-28T18:59:26.257Z,4.90
2019-03-28T19:03:34.842Z,4.89
2019-03-28T19:07:43.530Z,4.73
2019-03-28T19:11:52.025Z,4.48
2019-03-28T19:16:01.001Z,4.49
2019-03-28T19:20:10.020Z,4.72
2019-03-28T19:24:18.660Z,4.63
2019-03-28T19:28:29.270Z,4.62
2019-03-28T19:32:37.137Z,4.17
2019-03-28T19:36:46.884Z,4.24
2019-03-28T19:40:56.421Z,4.46
2019-03-28T19:45:05.402Z,4.30
2019-03-28T19:49:13.694Z,3.90
2019-03-28T19:53:22.604Z,4.34
2019-03-28T19:57:31.057Z,4.45
2019-03-28T20:01:39.387Z,4.22
2019-03-28T20:05:50.109Z,4.28
2019-03-28T20:09:58.784Z,4.41
2019-03-28T20:14:07.563Z,4.35
2019-03-28T20:18:16.136Z,4.56
2019-03-28T20:22:24.577Z,4.64
2019-03-28T20:26:34.003Z,4.71
2019-03-28T20:30:42.412Z,4.74
2019-03-28T20:34:50.664Z,4.49
2019-03-28T20:39:04.122Z,4.42
2019-03-28T20:43:10.900Z,4.45
2019-03-28T20:47:19.296Z,4.41
2019-03-28T20:51:28.133Z,4.51
2019-03-28T20:55:36.566Z,4.27
2019-03-28T20:59:46.886Z,4.47
2019-03-28T21:03:56.083Z,4.53
2019-03-28T21:08:05.190Z,4.54
2019-03-28T21:12:13.545Z,4.60
2019-03-28T21:16:22.376Z,4.41
2019-03-28T21:20:30.705Z,4.26
2019-03-28T21:24:39.624Z,4.32
2019-03-28T21:28:48.558Z,4.23
2019-03-28T21:32:57.879Z,4.05
2019-03-28T21:37:06.956Z,4.16
2019-03-28T21:41:16.716Z,3.95
2019-03-28T21:45:24.928Z,3.99
2019-03-28T21:49:33.347Z,4.15
2019-03-28T21:53:41.683Z,4.11
2019-03-28T21:57:49.991Z,4.18
2019-03-28T22:01:58.979Z,4.26
2019-03-28T22:06:07.265Z,4.12
2019-03-28T22:10:16.981Z,4.25
2019-03-28T22:14:26.051Z,3.99
2019-03-28T22:18:34.258Z,3.86
2019-03-28T22:22:43.600Z,4.16
2019-03-28T22:26:52.014Z,4.20
2019-03-28T22:31:00.270Z,3.87
2019-03-28T22:35:10.492Z,3.98
2019-03-28T22:39:18.922Z,3.81
2019-03-28T22:43:27.236Z,3.78
2019-03-28T22:47:36.087Z,3.78
2019-03-28T22:51:44.739Z,4.03
2019-03-28T22:55:53.043Z,3.52
2019-03-28T23:00:04.263Z,3.43
2019-03-28T23:04:13.197Z,3.73
2019-03-28T23:08:21.403Z,3.73
2019-03-28T23:12:30.324Z,3.42
2019-03-28T23:16:38.562Z,3.39
2019-03-28T23:20:47.603Z,3.46
2019-03-28T23:24:56.128Z,3.85
2019-03-28T23:29:04.360Z,3.85
2019-03-28T23:33:13.263Z,3.59
2019-03-28T23:37:24.979Z,3.72
2019-03-28T23:41:31.851Z,3.78
2019-03-28T23:45:40.493Z,3.42
2019-03-28T23:49:50.145Z,3.58
2019-03-28T23:53:58.485Z,3.52
2019-03-28T23:58:07.219Z,3.68
